sensor_id;sensor_type;location;lat;lon;timestamp;pressure;altitude;pressure_sealevel;temperature;humidity
10510;BME280;5303;53.266;10.410;2023-04-21T00:00:55;101805.16;;;7.44;76.16
10510;BME280;5303;53.266;10.410;2023-04-21T00:03:21;101798.94;;;7.40;76.63
10510;BME280;5303;53.266;10.410;2023-04-21T00:05:48;101804.28;;;7.43;76.56
10510;BME280;5303;53.266;10.410;2023-04-21T00:08:15;101796.97;;;7.32;76.50
10510;BME280;5303;53.266;10.410;2023-04-21T00:10:41;101798.84;;;7.36;76.35
10510;BME280;5303;53.266;10.410;2023-04-21T00:13:06;101800.56;;;7.35;76.80
10510;BME280;5303;53.266;10.410;2023-04-21T00:15:32;101790.72;;;7.27;76.86
10510;BME280;5303;53.266;10.410;2023-04-21T00:17:57;101790.63;;;7.23;76.26
10510;BME280;5303;53.266;10.410;2023-04-21T00:20:23;101789.78;;;7.25;76.62
10510;BME280;5303;53.266;10.410;2023-04-21T00:22:54;101782.47;;;7.13;77.13
10510;BME280;5303;53.266;10.410;2023-04-21T00:25:19;101787.00;;;7.18;77.41
10510;BME280;5303;53.266;10.410;2023-04-21T00:27:45;101787.00;;;7.18;76.84
10510;BME280;5303;53.266;10.410;2023-04-21T00:30:10;101797.34;;;7.12;77.00
10510;BME280;5303;53.266;10.410;2023-04-21T00:32:36;101798.03;;;7.05;77.87
10510;BME280;5303;53.266;10.410;2023-04-21T00:35:01;101792.91;;;7.10;77.28
10510;BME280;5303;53.266;10.410;2023-04-21T00:37:26;101795.41;;;7.05;77.36
10510;BME280;5303;53.266;10.410;2023-04-21T00:39:52;101799.41;;;6.92;77.82
10510;BME280;5303;53.266;10.410;2023-04-21T00:42:17;101794.34;;;6.99;77.59
10510;BME280;5303;53.266;10.410;2023-04-21T00:44:43;101794.34;;;6.99;77.29
10510;BME280;5303;53.266;10.410;2023-04-21T00:47:08;101786.22;;;6.89;77.75
10510;BME280;5303;53.266;10.410;2023-04-21T00:49:34;101788.84;;;6.89;77.71
10510;BME280;5303;53.266;10.410;2023-04-21T00:51:59;101787.16;;;6.91;77.74
10510;BME280;5303;53.266;10.410;2023-04-21T00:54:25;101788.78;;;6.86;78.12
10510;BME280;5303;53.266;10.410;2023-04-21T00:56:51;101786.19;;;6.88;77.79
10510;BME280;5303;53.266;10.410;2023-04-21T00:59:17;101792.25;;;6.85;78.23
10510;BME280;5303;53.266;10.410;2023-04-21T01:01:42;101791.44;;;6.88;78.37
10510;BME280;5303;53.266;10.410;2023-04-21T01:04:08;101785.94;;;6.79;77.96
10510;BME280;5303;53.266;10.410;2023-04-21T01:06:34;101783.28;;;6.77;77.89
10510;BME280;5303;53.266;10.410;2023-04-21T01:09:00;101787.41;;;6.69;78.33
10510;BME280;5303;53.266;10.410;2023-04-21T01:11:25;101789.22;;;6.72;78.19
10510;BME280;5303;53.266;10.410;2023-04-21T01:13:52;101778.56;;;6.66;78.61
10510;BME280;5303;53.266;10.410;2023-04-21T01:16:19;101783.16;;;6.74;78.17
10510;BME280;5303;53.266;10.410;2023-04-21T01:18:45;101784.78;;;6.69;78.15
10510;BME280;5303;53.266;10.410;2023-04-21T01:21:11;101776.00;;;6.67;78.70
10510;BME280;5303;53.266;10.410;2023-04-21T01:23:38;101777.41;;;6.56;79.00
10510;BME280;5303;53.266;10.410;2023-04-21T01:26:03;101769.25;;;6.45;79.03
10510;BME280;5303;53.266;10.410;2023-04-21T01:28:28;101777.38;;;6.54;79.00
10510;BME280;5303;53.266;10.410;2023-04-21T01:30:54;101772.00;;;6.50;79.19
10510;BME280;5303;53.266;10.410;2023-04-21T01:33:19;101771.13;;;6.51;79.01
10510;BME280;5303;53.266;10.410;2023-04-21T01:35:45;101764.19;;;6.53;78.73
10510;BME280;5303;53.266;10.410;2023-04-21T01:38:11;101771.19;;;6.52;79.13
10510;BME280;5303;53.266;10.410;2023-04-21T01:40:37;101759.66;;;6.46;79.19
10510;BME280;5303;53.266;10.410;2023-04-21T01:43:03;101763.13;;;6.45;79.17
10510;BME280;5303;53.266;10.410;2023-04-21T01:45:30;101759.38;;;6.37;79.79
10510;BME280;5303;53.266;10.410;2023-04-21T01:47:55;101761.81;;;6.30;79.84
10510;BME280;5303;53.266;10.410;2023-04-21T01:50:21;101762.97;;;6.40;79.83
10510;BME280;5303;53.266;10.410;2023-04-21T01:52:46;101758.56;;;6.39;79.51
10510;BME280;5303;53.266;10.410;2023-04-21T01:55:11;101756.59;;;6.32;79.56
10510;BME280;5303;53.266;10.410;2023-04-21T01:57:37;101765.28;;;6.29;80.07
10510;BME280;5303;53.266;10.410;2023-04-21T02:00:03;101765.31;;;6.31;79.90
10510;BME280;5303;53.266;10.410;2023-04-21T02:02:28;101759.03;;;6.24;79.81
10510;BME280;5303;53.266;10.410;2023-04-21T02:04:54;101759.81;;;6.22;80.21
10510;BME280;5303;53.266;10.410;2023-04-21T02:07:19;101753.88;;;6.27;80.34
10510;BME280;5303;53.266;10.410;2023-04-21T02:09:44;101757.13;;;6.20;79.94
10510;BME280;5303;53.266;10.410;2023-04-21T02:12:10;101759.72;;;6.19;80.46
10510;BME280;5303;53.266;10.410;2023-04-21T02:14:36;101751.16;;;6.24;80.37
10510;BME280;5303;53.266;10.410;2023-04-21T02:17:02;101744.81;;;6.16;80.38
10510;BME280;5303;53.266;10.410;2023-04-21T02:19:28;101749.97;;;6.13;80.17
10510;BME280;5303;53.266;10.410;2023-04-21T02:21:53;101745.72;;;6.18;80.33
10510;BME280;5303;53.266;10.410;2023-04-21T02:24:18;101753.50;;;6.15;80.12
10510;BME280;5303;53.266;10.410;2023-04-21T02:26:43;101758.63;;;6.12;80.28
10510;BME280;5303;53.266;10.410;2023-04-21T02:29:09;101751.66;;;6.13;80.33
10510;BME280;5303;53.266;10.410;2023-04-21T02:31:34;101751.47;;;6.05;80.85
10510;BME280;5303;53.266;10.410;2023-04-21T02:33:59;101753.31;;;6.09;80.48
10510;BME280;5303;53.266;10.410;2023-04-21T02:36:25;101756.78;;;6.08;80.68
10510;BME280;5303;53.266;10.410;2023-04-21T02:38:51;101752.09;;;5.98;80.94
10510;BME280;5303;53.266;10.410;2023-04-21T02:41:16;101753.31;;;6.09;80.25
10510;BME280;5303;53.266;10.410;2023-04-21T02:43:41;101749.47;;;5.98;81.10
10510;BME280;5303;53.266;10.410;2023-04-21T02:46:07;101753.16;;;6.03;80.60
10510;BME280;5303;53.266;10.410;2023-04-21T02:48:34;101745.06;;;5.95;80.68
10510;BME280;5303;53.266;10.410;2023-04-21T02:51:00;101749.75;;;6.07;80.75
10510;BME280;5303;53.266;10.410;2023-04-21T02:53:25;101750.53;;;6.03;80.56
10510;BME280;5303;53.266;10.410;2023-04-21T02:55:50;101755.09;;;6.10;80.56
10510;BME280;5303;53.266;10.410;2023-04-21T02:58:16;101749.69;;;6.04;80.25
10510;BME280;5303;53.266;10.410;2023-04-21T03:00:41;101745.84;;;5.93;80.59
10510;BME280;5303;53.266;10.410;2023-04-21T03:03:06;101742.31;;;5.92;80.80
10510;BME280;5303;53.266;10.410;2023-04-21T03:05:32;101746.63;;;5.90;80.86
10510;BME280;5303;53.266;10.410;2023-04-21T03:07:57;101743.75;;;5.83;81.01
10510;BME280;5303;53.266;10.410;2023-04-21T03:10:22;101742.97;;;5.85;81.32
10510;BME280;5303;53.266;10.410;2023-04-21T03:12:47;101748.28;;;5.88;80.89
10510;BME280;5303;53.266;10.410;2023-04-21T03:15:13;101744.03;;;5.92;81.13
10510;BME280;5303;53.266;10.410;2023-04-21T03:17:41;101743.09;;;5.90;80.98
10510;BME280;5303;53.266;10.410;2023-04-21T03:20:07;101733.56;;;5.92;80.57
10510;BME280;5303;53.266;10.410;2023-04-21T03:22:35;101741.44;;;5.92;81.01
10510;BME280;5303;53.266;10.410;2023-04-21T03:25:01;101733.38;;;5.86;80.90
10510;BME280;5303;53.266;10.410;2023-04-21T03:27:26;101732.56;;;5.88;80.82
10510;BME280;5303;53.266;10.410;2023-04-21T03:29:51;101730.94;;;5.92;80.95
10510;BME280;5303;53.266;10.410;2023-04-21T03:32:17;101731.22;;;6.01;80.85
10510;BME280;5303;53.266;10.410;2023-04-21T03:34:42;101723.28;;;5.98;80.37
10510;BME280;5303;53.266;10.410;2023-04-21T03:37:07;101728.34;;;5.92;80.74
10510;BME280;5303;53.266;10.410;2023-04-21T03:39:33;101737.59;;;5.82;81.20
10510;BME280;5303;53.266;10.410;2023-04-21T03:41:58;101733.13;;;5.78;81.45
10510;BME280;5303;53.266;10.410;2023-04-21T03:44:26;101729.63;;;5.77;81.29
10510;BME280;5303;53.266;10.410;2023-04-21T03:46:53;101735.06;;;5.84;81.33
10510;BME280;5303;53.266;10.410;2023-04-21T03:49:19;101736.66;;;5.80;81.03
10510;BME280;5303;53.266;10.410;2023-04-21T03:51:44;101738.22;;;5.73;81.76
10510;BME280;5303;53.266;10.410;2023-04-21T03:54:09;101730.16;;;5.67;81.90
10510;BME280;5303;53.266;10.410;2023-04-21T03:56:35;101730.41;;;5.75;81.78
10510;BME280;5303;53.266;10.410;2023-04-21T03:59:00;101732.19;;;5.76;81.48
10510;BME280;5303;53.266;10.410;2023-04-21T04:01:25;101734.09;;;5.82;80.99
10510;BME280;5303;53.266;10.410;2023-04-21T04:03:50;101734.53;;;5.94;80.42
10510;BME280;5303;53.266;10.410;2023-04-21T04:06:16;101730.00;;;5.90;80.82
10510;BME280;5303;53.266;10.410;2023-04-21T04:08:41;101724.97;;;5.96;80.23
10510;BME280;5303;53.266;10.410;2023-04-21T04:11:06;101728.13;;;5.86;80.09
10510;BME280;5303;53.266;10.410;2023-04-21T04:13:32;101725.59;;;5.89;80.50
10510;BME280;5303;53.266;10.410;2023-04-21T04:15:57;101726.31;;;5.83;80.76
10510;BME280;5303;53.266;10.410;2023-04-21T04:18:23;101733.66;;;5.93;80.22
10510;BME280;5303;53.266;10.410;2023-04-21T04:20:48;101722.97;;;5.89;80.20
10510;BME280;5303;53.266;10.410;2023-04-21T04:23:14;101721.19;;;5.88;80.71
10510;BME280;5303;53.266;10.410;2023-04-21T04:25:39;101728.97;;;5.85;80.41
10510;BME280;5303;53.266;10.410;2023-04-21T04:28:04;101729.69;;;5.81;80.69
10510;BME280;5303;53.266;10.410;2023-04-21T04:30:31;101734.63;;;5.97;80.24
10510;BME280;5303;53.266;10.410;2023-04-21T04:32:57;101733.69;;;5.95;80.42
10510;BME280;5303;53.266;10.410;2023-04-21T04:35:22;101733.84;;;6.01;79.98
10510;BME280;5303;53.266;10.410;2023-04-21T04:37:48;101724.97;;;5.96;79.99
10510;BME280;5303;53.266;10.410;2023-04-21T04:40:13;101723.97;;;5.92;80.16
10510;BME280;5303;53.266;10.410;2023-04-21T04:42:40;101725.91;;;5.98;80.16
10510;BME280;5303;53.266;10.410;2023-04-21T04:45:06;101731.50;;;6.10;79.70
10510;BME280;5303;53.266;10.410;2023-04-21T04:47:35;101739.53;;;6.15;79.41
10510;BME280;5303;53.266;10.410;2023-04-21T04:50:01;101735.16;;;6.15;79.06
10510;BME280;5303;53.266;10.410;2023-04-21T04:52:26;101723.84;;;6.16;79.16
10510;BME280;5303;53.266;10.410;2023-04-21T04:54:51;101725.81;;;6.23;78.71
10510;BME280;5303;53.266;10.410;2023-04-21T04:57:17;101723.88;;;6.18;79.31
10510;BME280;5303;53.266;10.410;2023-04-21T04:59:42;101726.59;;;6.21;79.18
10510;BME280;5303;53.266;10.410;2023-04-21T05:02:07;101719.72;;;6.24;78.52
10510;BME280;5303;53.266;10.410;2023-04-21T05:04:34;101728.44;;;6.23;78.58
10510;BME280;5303;53.266;10.410;2023-04-21T05:06:59;101729.38;;;6.25;78.86
10510;BME280;5303;53.266;10.410;2023-04-21T05:09:25;101727.75;;;6.30;78.53
10510;BME280;5303;53.266;10.410;2023-04-21T05:11:50;101736.53;;;6.32;78.92
10510;BME280;5303;53.266;10.410;2023-04-21T05:14:15;101736.50;;;6.31;78.68
10510;BME280;5303;53.266;10.410;2023-04-21T05:16:42;101741.47;;;6.52;78.37
10510;BME280;5303;53.266;10.410;2023-04-21T05:19:07;101739.03;;;6.58;77.86
10510;BME280;5303;53.266;10.410;2023-04-21T05:21:33;101745.84;;;6.53;78.61
10510;BME280;5303;53.266;10.410;2023-04-21T05:23:58;101735.56;;;6.59;77.68
10510;BME280;5303;53.266;10.410;2023-04-21T05:26:25;101737.31;;;6.60;77.66
10510;BME280;5303;53.266;10.410;2023-04-21T05:28:51;101737.13;;;6.54;78.06
10510;BME280;5303;53.266;10.410;2023-04-21T05:31:17;101742.66;;;6.63;78.19
10510;BME280;5303;53.266;10.410;2023-04-21T05:33:42;101736.88;;;6.75;77.14
10510;BME280;5303;53.266;10.410;2023-04-21T05:36:10;101737.28;;;6.90;76.70
10510;BME280;5303;53.266;10.410;2023-04-21T05:38:36;101734.69;;;6.91;76.07
10510;BME280;5303;53.266;10.410;2023-04-21T05:41:03;101741.56;;;6.86;77.14
10510;BME280;5303;53.266;10.410;2023-04-21T05:43:28;101737.31;;;6.91;76.68
10510;BME280;5303;53.266;10.410;2023-04-21T05:45:54;101736.75;;;7.03;76.18
10510;BME280;5303;53.266;10.410;2023-04-21T05:48:19;101738.69;;;7.10;75.78
10510;BME280;5303;53.266;10.410;2023-04-21T05:50:44;101734.31;;;7.11;75.83
10510;BME280;5303;53.266;10.410;2023-04-21T05:53:10;101733.72;;;7.21;75.73
10510;BME280;5303;53.266;10.410;2023-04-21T05:55:35;101736.53;;;7.29;75.11
10510;BME280;5303;53.266;10.410;2023-04-21T05:58:01;101730.41;;;7.28;75.04
10510;BME280;5303;53.266;10.410;2023-04-21T06:00:26;101734.13;;;7.36;74.85
10510;BME280;5303;53.266;10.410;2023-04-21T06:02:51;101722.91;;;7.45;74.16
10510;BME280;5303;53.266;10.410;2023-04-21T06:05:17;101723.91;;;7.48;73.98
10510;BME280;5303;53.266;10.410;2023-04-21T06:07:42;101725.75;;;7.53;74.55
10510;BME280;5303;53.266;10.410;2023-04-21T06:10:09;101719.72;;;7.57;74.58
10510;BME280;5303;53.266;10.410;2023-04-21T06:12:35;101721.97;;;7.77;73.73
10510;BME280;5303;53.266;10.410;2023-04-21T06:15:00;101722.06;;;7.82;73.66
10510;BME280;5303;53.266;10.410;2023-04-21T06:17:26;101718.84;;;7.95;73.35
10510;BME280;5303;53.266;10.410;2023-04-21T06:19:52;101719.84;;;8.00;73.88
10510;BME280;5303;53.266;10.410;2023-04-21T06:22:26;101710.47;;;8.13;73.44
10510;BME280;5303;53.266;10.410;2023-04-21T06:24:52;101718.72;;;8.30;72.50
10510;BME280;5303;53.266;10.410;2023-04-21T06:27:17;101722.28;;;8.32;72.10
10510;BME280;5303;53.266;10.410;2023-04-21T06:29:42;101725.97;;;8.39;72.10
10510;BME280;5303;53.266;10.410;2023-04-21T06:32:09;101711.13;;;8.42;72.52
10510;BME280;5303;53.266;10.410;2023-04-21T06:34:34;101721.19;;;8.64;72.02
10510;BME280;5303;53.266;10.410;2023-04-21T06:36:59;101720.28;;;8.62;71.29
10510;BME280;5303;53.266;10.410;2023-04-21T06:39:25;101718.56;;;8.64;71.72
10510;BME280;5303;53.266;10.410;2023-04-21T06:41:50;101715.28;;;8.76;71.97
10510;BME280;5303;53.266;10.410;2023-04-21T06:44:16;101716.41;;;8.89;71.80
10510;BME280;5303;53.266;10.410;2023-04-21T06:46:41;101712.28;;;9.05;70.76
10510;BME280;5303;53.266;10.410;2023-04-21T06:49:07;101715.78;;;9.04;70.13
10510;BME280;5303;53.266;10.410;2023-04-21T06:51:33;101705.41;;;9.11;70.70
10510;BME280;5303;53.266;10.410;2023-04-21T06:53:58;101707.22;;;9.15;70.95
10510;BME280;5303;53.266;10.410;2023-04-21T06:56:27;101710.16;;;9.34;70.55
10510;BME280;5303;53.266;10.410;2023-04-21T06:58:53;101713.69;;;9.36;70.22
10510;BME280;5303;53.266;10.410;2023-04-21T07:01:19;101708.78;;;9.57;69.58
10510;BME280;5303;53.266;10.410;2023-04-21T07:03:44;101708.06;;;9.69;68.65
10510;BME280;5303;53.266;10.410;2023-04-21T07:06:09;101704.94;;;9.96;68.07
10510;BME280;5303;53.266;10.410;2023-04-21T07:08:35;101698.81;;;9.98;66.63
10510;BME280;5303;53.266;10.410;2023-04-21T07:11:01;101699.72;;;9.99;66.27
10510;BME280;5303;53.266;10.410;2023-04-21T07:13:26;101694.66;;;10.14;67.85
10510;BME280;5303;53.266;10.410;2023-04-21T07:15:52;101701.84;;;10.23;66.56
10510;BME280;5303;53.266;10.410;2023-04-21T07:18:17;101693.94;;;10.26;65.78
10510;BME280;5303;53.266;10.410;2023-04-21T07:20:42;101694.06;;;10.33;67.57
10510;BME280;5303;53.266;10.410;2023-04-21T07:23:07;101690.72;;;10.50;67.31
10510;BME280;5303;53.266;10.410;2023-04-21T07:25:33;101688.94;;;10.49;66.06
10510;BME280;5303;53.266;10.410;2023-04-21T07:27:58;101687.34;;;10.63;65.61
10510;BME280;5303;53.266;10.410;2023-04-21T07:30:23;101687.41;;;10.69;66.28
10510;BME280;5303;53.266;10.410;2023-04-21T07:32:49;101686.63;;;10.79;65.39
10510;BME280;5303;53.266;10.410;2023-04-21T07:35:14;101691.03;;;10.80;65.46
10510;BME280;5303;53.266;10.410;2023-04-21T07:37:40;101693.00;;;11.00;64.22
10510;BME280;5303;53.266;10.410;2023-04-21T07:40:08;101687.72;;;11.03;64.82
10510;BME280;5303;53.266;10.410;2023-04-21T07:42:34;101688.81;;;11.26;64.32
10510;BME280;5303;53.266;10.410;2023-04-21T07:44:59;101689.88;;;11.46;62.64
10510;BME280;5303;53.266;10.410;2023-04-21T07:47:26;101684.59;;;11.52;62.74
10510;BME280;5303;53.266;10.410;2023-04-21T07:49:52;101686.44;;;11.60;61.68
10510;BME280;5303;53.266;10.410;2023-04-21T07:52:17;101682.91;;;11.58;62.74
10510;BME280;5303;53.266;10.410;2023-04-21T07:54:42;101679.44;;;11.71;62.08
10510;BME280;5303;53.266;10.410;2023-04-21T07:57:08;101676.81;;;11.71;62.67
10510;BME280;5303;53.266;10.410;2023-04-21T07:59:33;101670.63;;;11.69;62.07
10510;BME280;5303;53.266;10.410;2023-04-21T08:01:58;101677.78;;;11.85;61.55
10510;BME280;5303;53.266;10.410;2023-04-21T08:04:24;101676.06;;;11.90;61.33
10510;BME280;5303;53.266;10.410;2023-04-21T08:06:49;101672.59;;;11.97;61.48
10510;BME280;5303;53.266;10.410;2023-04-21T08:09:15;101671.66;;;11.89;62.67
10510;BME280;5303;53.266;10.410;2023-04-21T08:11:40;101672.59;;;11.97;62.40
10510;BME280;5303;53.266;10.410;2023-04-21T08:14:05;101670.94;;;12.21;62.19
10510;BME280;5303;53.266;10.410;2023-04-21T08:16:31;101672.69;;;12.23;62.25
10510;BME280;5303;53.266;10.410;2023-04-21T08:18:56;101664.78;;;12.35;59.70
10510;BME280;5303;53.266;10.410;2023-04-21T08:21:21;101674.53;;;12.38;59.76
10510;BME280;5303;53.266;10.410;2023-04-21T08:23:48;101663.06;;;12.44;60.12
10510;BME280;5303;53.266;10.410;2023-04-21T08:26:14;101658.66;;;12.44;60.59
10510;BME280;5303;53.266;10.410;2023-04-21T08:28:40;101656.84;;;12.35;60.48
10510;BME280;5303;53.266;10.410;2023-04-21T08:31:05;101657.78;;;12.56;60.91
10510;BME280;5303;53.266;10.410;2023-04-21T08:33:30;101654.28;;;12.61;59.95
10510;BME280;5303;53.266;10.410;2023-04-21T08:35:56;101650.78;;;12.81;58.78
10510;BME280;5303;53.266;10.410;2023-04-21T08:38:21;101653.44;;;12.84;57.62
10510;BME280;5303;53.266;10.410;2023-04-21T08:40:47;101642.84;;;12.81;57.51
10510;BME280;5303;53.266;10.410;2023-04-21T08:43:13;101653.47;;;12.90;58.76
10510;BME280;5303;53.266;10.410;2023-04-21T08:45:40;101650.78;;;12.94;58.19
10510;BME280;5303;53.266;10.410;2023-04-21T08:48:05;101646.41;;;12.98;57.94
10510;BME280;5303;53.266;10.410;2023-04-21T08:50:32;101651.69;;;13.15;58.07
10510;BME280;5303;53.266;10.410;2023-04-21T08:52:58;101650.81;;;13.10;58.29
10510;BME280;5303;53.266;10.410;2023-04-21T08:55:30;101637.59;;;13.23;57.75
10510;BME280;5303;53.266;10.410;2023-04-21T08:57:56;101648.19;;;13.33;57.89
10510;BME280;5303;53.266;10.410;2023-04-21T09:00:21;101650.81;;;13.46;58.04
10510;BME280;5303;53.266;10.410;2023-04-21T09:02:55;101643.72;;;13.58;56.45
10510;BME280;5303;53.266;10.410;2023-04-21T09:05:22;101636.66;;;13.60;57.74
10510;BME280;5303;53.266;10.410;2023-04-21T09:07:49;101643.66;;;13.77;55.94
10510;BME280;5303;53.266;10.410;2023-04-21T09:10:21;101640.13;;;13.84;55.89
10510;BME280;5303;53.266;10.410;2023-04-21T09:12:49;101645.38;;;13.97;56.03
10510;BME280;5303;53.266;10.410;2023-04-21T09:15:15;101640.88;;;14.17;55.62
10510;BME280;5303;53.266;10.410;2023-04-21T09:17:44;101650.56;;;14.26;54.32
10510;BME280;5303;53.266;10.410;2023-04-21T09:20:17;101639.06;;;14.25;54.62
10510;BME280;5303;53.266;10.410;2023-04-21T09:22:43;101639.06;;;14.25;53.91
10510;BME280;5303;53.266;10.410;2023-04-21T09:25:09;101638.09;;;14.48;55.23
10510;BME280;5303;53.266;10.410;2023-04-21T09:27:35;101641.66;;;14.34;55.36
10510;BME280;5303;53.266;10.410;2023-04-21T09:30:02;101627.44;;;14.52;53.26
10510;BME280;5303;53.266;10.410;2023-04-21T09:32:28;101629.13;;;14.61;53.55
10510;BME280;5303;53.266;10.410;2023-04-21T09:34:59;101621.97;;;14.75;51.99
10510;BME280;5303;53.266;10.410;2023-04-21T09:37:24;101621.94;;;14.83;52.03
10510;BME280;5303;53.266;10.410;2023-04-21T09:39:49;101629.81;;;14.90;52.87
10510;BME280;5303;53.266;10.410;2023-04-21T09:42:15;101615.59;;;14.97;51.48
10510;BME280;5303;53.266;10.410;2023-04-21T09:44:40;101619.03;;;15.09;51.97
10510;BME280;5303;53.266;10.410;2023-04-21T09:47:09;101619.88;;;15.15;50.68
10510;BME280;5303;53.266;10.410;2023-04-21T09:49:38;101613.53;;;15.30;51.13
10510;BME280;5303;53.266;10.410;2023-04-21T09:52:09;101621.47;;;15.32;50.62
10510;BME280;5303;53.266;10.410;2023-04-21T09:54:36;101598.38;;;15.38;50.54
10510;BME280;5303;53.266;10.410;2023-04-21T09:57:06;101608.03;;;15.47;50.23
10510;BME280;5303;53.266;10.410;2023-04-21T09:59:35;101606.28;;;15.47;50.30
10510;BME280;5303;53.266;10.410;2023-04-21T10:02:04;101600.81;;;15.64;49.14
10510;BME280;5303;53.266;10.410;2023-04-21T10:04:30;101590.09;;;15.69;49.19
10510;BME280;5303;53.266;10.410;2023-04-21T10:06:57;101595.38;;;15.75;49.93
10510;BME280;5303;53.266;10.410;2023-04-21T10:09:26;101582.88;;;15.80;48.86
10510;BME280;5303;53.266;10.410;2023-04-21T10:11:55;101590.00;;;15.78;48.63
10510;BME280;5303;53.266;10.410;2023-04-21T10:14:23;101582.69;;;15.94;48.88
10510;BME280;5303;53.266;10.410;2023-04-21T10:17:19;101586.03;;;16.09;50.11
10510;BME280;5303;53.266;10.410;2023-04-21T10:20:05;101585.31;;;15.98;49.50
10510;BME280;5303;53.266;10.410;2023-04-21T10:22:34;101585.97;;;16.16;49.77
10510;BME280;5303;53.266;10.410;2023-04-21T10:25:01;101571.66;;;16.23;48.89
10510;BME280;5303;53.266;10.410;2023-04-21T10:27:40;101573.41;;;16.24;48.48
10510;BME280;5303;53.266;10.410;2023-04-21T10:32:43;101562.50;;;16.42;47.97
10510;BME280;5303;53.266;10.410;2023-04-21T10:35:21;101569.50;;;16.49;46.55
10510;BME280;5303;53.266;10.410;2023-04-21T10:37:48;101551.69;;;16.51;46.36
10510;BME280;5303;53.266;10.410;2023-04-21T10:42:55;101548.81;;;16.65;46.83
10510;BME280;5303;53.266;10.410;2023-04-21T10:45:24;101548.69;;;16.76;46.08
10510;BME280;5303;53.266;10.410;2023-04-21T10:47:51;101546.78;;;16.82;45.75
10510;BME280;5303;53.266;10.410;2023-04-21T10:50:27;101538.53;;;16.96;45.00
10510;BME280;5303;53.266;10.410;2023-04-21T10:53:09;101539.28;;;17.04;45.75
10510;BME280;5303;53.266;10.410;2023-04-21T10:55:35;101540.84;;;17.16;44.71
10510;BME280;5303;53.266;10.410;2023-04-21T10:58:02;101538.78;;;17.32;44.44
10510;BME280;5303;53.266;10.410;2023-04-21T11:00:28;101541.41;;;17.33;43.61
10510;BME280;5303;53.266;10.410;2023-04-21T11:02:58;101537.88;;;17.33;43.21
10510;BME280;5303;53.266;10.410;2023-04-21T11:05:36;101527.78;;;17.48;41.69
10510;BME280;5303;53.266;10.410;2023-04-21T11:08:20;101521.69;;;17.42;42.18
10510;BME280;5303;53.266;10.410;2023-04-21T11:10:54;101515.28;;;17.50;41.46
10510;BME280;5303;53.266;10.410;2023-04-21T11:13:25;101516.03;;;17.57;42.91
10510;BME280;5303;53.266;10.410;2023-04-21T11:15:57;101513.16;;;17.68;42.29
10510;BME280;5303;53.266;10.410;2023-04-21T11:18:38;101497.81;;;17.77;42.91
10510;BME280;5303;53.266;10.410;2023-04-21T11:21:08;101499.53;;;17.81;42.81
10510;BME280;5303;53.266;10.410;2023-04-21T11:23:34;101492.09;;;17.96;40.59
10510;BME280;5303;53.266;10.410;2023-04-21T11:26:00;101490.03;;;18.07;41.90
10510;BME280;5303;53.266;10.410;2023-04-21T11:28:25;101502.13;;;18.23;36.73
10510;BME280;5303;53.266;10.410;2023-04-21T11:30:50;101487.72;;;18.30;36.06
10510;BME280;5303;53.266;10.410;2023-04-21T11:33:16;101491.53;;;18.20;33.95
10510;BME280;5303;53.266;10.410;2023-04-21T11:35:42;101493.22;;;18.24;35.36
10510;BME280;5303;53.266;10.410;2023-04-21T11:38:07;101482.31;;;18.33;35.08
10510;BME280;5303;53.266;10.410;2023-04-21T11:40:48;101482.47;;;18.26;36.12
10510;BME280;5303;53.266;10.410;2023-04-21T11:43:13;101469.88;;;18.32;34.39
10510;BME280;5303;53.266;10.410;2023-04-21T11:45:41;101475.91;;;18.39;33.47
10510;BME280;5303;53.266;10.410;2023-04-21T11:48:17;101469.44;;;18.49;33.70
10510;BME280;5303;53.266;10.410;2023-04-21T11:50:48;101464.06;;;18.51;33.38
10510;BME280;5303;53.266;10.410;2023-04-21T11:53:14;101470.34;;;18.50;34.04
10510;BME280;5303;53.266;10.410;2023-04-21T11:55:44;101462.81;;;18.64;33.19
10510;BME280;5303;53.266;10.410;2023-04-21T11:58:10;101465.44;;;18.67;32.22
10510;BME280;5303;53.266;10.410;2023-04-21T12:00:36;101454.81;;;18.64;32.23
10510;BME280;5303;53.266;10.410;2023-04-21T12:03:01;101461.84;;;18.68;32.61
10510;BME280;5303;53.266;10.410;2023-04-21T12:05:34;101462.22;;;18.53;32.41
10510;BME280;5303;53.266;10.410;2023-04-21T12:08:00;101454.22;;;18.53;33.88
10510;BME280;5303;53.266;10.410;2023-04-21T12:10:27;101445.97;;;18.62;32.31
10510;BME280;5303;53.266;10.410;2023-04-21T12:12:55;101438.75;;;18.65;32.63
10510;BME280;5303;53.266;10.410;2023-04-21T12:15:20;101439.44;;;18.74;31.71
10510;BME280;5303;53.266;10.410;2023-04-21T12:17:51;101438.72;;;18.67;33.38
10510;BME280;5303;53.266;10.410;2023-04-21T12:20:22;101436.38;;;18.87;31.29
10510;BME280;5303;53.266;10.410;2023-04-21T12:22:47;101438.44;;;18.78;33.23
10510;BME280;5303;53.266;10.410;2023-04-21T12:25:13;101429.13;;;18.92;33.13
10510;BME280;5303;53.266;10.410;2023-04-21T12:30:14;101427.03;;;19.04;32.14
10510;BME280;5303;53.266;10.410;2023-04-21T12:32:39;101414.63;;;19.01;32.90
10510;BME280;5303;53.266;10.410;2023-04-21T12:35:05;101431.41;;;19.06;31.49
10510;BME280;5303;53.266;10.410;2023-04-21T12:37:30;101416.59;;;18.94;31.75
10510;BME280;5303;53.266;10.410;2023-04-21T12:39:55;101420.00;;;18.99;31.99
10510;BME280;5303;53.266;10.410;2023-04-21T12:42:21;101410.31;;;18.95;31.55
10510;BME280;5303;53.266;10.410;2023-04-21T12:44:47;101414.47;;;19.06;30.47
10510;BME280;5303;53.266;10.410;2023-04-21T12:47:12;101410.78;;;19.10;32.65
10510;BME280;5303;53.266;10.410;2023-04-21T12:49:37;101409.00;;;19.10;31.62
10510;BME280;5303;53.266;10.410;2023-04-21T12:52:03;101413.25;;;19.17;31.02
10510;BME280;5303;53.266;10.410;2023-04-21T12:54:30;101411.00;;;19.04;30.81
10510;BME280;5303;53.266;10.410;2023-04-21T12:56:55;101409.25;;;19.03;31.26
10510;BME280;5303;53.266;10.410;2023-04-21T12:59:22;101414.34;;;19.10;31.25